Time;durP1;ratioP1;P1;durP2;ratioP2;P2;SDS_P1;SDS_P2;PMS_P1;PMS_P2;Temp;Humidity;BMP_temperature;BMP_pressure;BME280_temperature;BME280_humidity;BME280_pressure;Samples;Min_cycle;Max_cycle;Signal;HPM_P1;HPM_P2
2023/11/18 00:02:58;;;;;;;21.77;10.93;;;;;;;3.84;100.00;100956.42;5125757;56;1140770;-74
2023/11/18 00:08:04;;;;;;;21.93;10.70;;;;;;;3.90;100.00;100957.94;5126989;56;1142846;-75
2023/11/18 00:13:10;;;;;;;19.70;10.73;;;;;;;3.99;100.00;100969.30;4959502;57;1142695;-74
2023/11/18 00:18:15;;;;;;;21.70;12.73;;;;;;;4.10;100.00;100962.32;4958767;57;1198817;-73
2023/11/18 00:23:21;;;;;;;27.40;13.60;;;;;;;4.14;100.00;100975.18;4977751;57;1161182;-73
2023/11/18 00:28:27;;;;;;;34.13;15.47;;;;;;;4.12;100.00;100973.13;4959968;57;1143252;-74
2023/11/18 00:33:32;;;;;;;27.63;14.47;;;;;;;4.07;100.00;100975.53;5042196;56;1140849;-74
2023/11/18 00:38:38;;;;;;;32.17;17.37;;;;;;;4.00;100.00;100978.86;5062228;56;1140694;-74
2023/11/18 00:43:44;;;;;;;36.27;16.30;;;;;;;3.98;100.00;100975.91;5041612;56;1140913;-73
2023/11/18 00:48:50;;;;;;;27.90;13.63;;;;;;;4.02;100.00;100972.25;5120736;56;1142607;-73
2023/11/18 00:53:56;;;;;;;28.27;16.20;;;;;;;4.08;100.00;100970.69;5126860;56;1142744;-73
2023/11/18 00:59:01;;;;;;;33.33;18.00;;;;;;;4.16;100.00;100972.50;5146180;56;1142914;-73
2023/11/18 01:04:07;;;;;;;34.27;18.40;;;;;;;4.24;100.00;100984.81;5126519;56;1140539;-75
2023/11/18 01:09:13;;;;;;;39.10;20.70;;;;;;;4.15;100.00;100993.90;4959126;57;1140802;-73
2023/11/18 01:14:19;;;;;;;37.70;19.00;;;;;;;3.95;100.00;101000.47;5061451;56;1140699;-74
2023/11/18 01:19:24;;;;;;;33.73;17.87;;;;;;;3.83;100.00;101011.42;4959130;57;1165336;-74
2023/11/18 01:24:30;;;;;;;34.30;17.90;;;;;;;3.78;100.00;101010.79;4958604;57;1192479;-73
2023/11/18 01:29:36;;;;;;;36.10;18.43;;;;;;;3.72;100.00;101016.27;4972788;57;1247670;-73
2023/11/18 01:34:43;;;;;;;46.17;21.97;;;;;;;3.64;100.00;101015.75;5113052;56;1246232;-75
2023/11/18 01:39:49;;;;;;;46.80;21.60;;;;;;;3.66;100.00;101028.31;5088683;56;1249722;-75
2023/11/18 01:44:55;;;;;;;44.90;23.32;;;;;;;3.70;100.00;101029.41;5116690;56;1258447;-74
2023/11/18 01:50:03;;;;;;;49.55;25.72;;;;;;;3.76;100.00;101022.63;5156297;56;1244851;-73
2023/11/18 01:55:10;;;;;;;48.70;24.63;;;;;;;3.71;100.00;101023.72;5136361;56;1186318;-74
2023/11/18 02:00:17;;;;;;;52.00;23.67;;;;;;;3.80;100.00;101029.89;5133499;56;1258425;-74
2023/11/18 02:05:23;;;;;;;50.50;23.57;;;;;;;3.84;100.00;101048.00;5155583;56;1257969;-75
2023/11/18 02:10:29;;;;;;;55.20;23.27;;;;;;;3.80;100.00;101045.59;5073083;56;1259628;-74
2023/11/18 02:15:37;;;;;;;49.37;24.30;;;;;;;3.80;100.00;101053.45;5050408;56;1257718;-73
2023/11/18 02:20:43;;;;;;;46.57;23.47;;;;;;;3.83;100.00;101065.06;5071913;56;1257641;-75
2023/11/18 02:25:50;;;;;;;49.93;23.18;;;;;;;3.76;100.00;101072.33;5109530;56;1257819;-75
2023/11/18 02:31:03;;;;;;;47.93;23.20;;;;;;;3.70;100.00;101084.34;5122577;56;1140745;-74
2023/11/18 02:36:15;;;;;;;49.53;23.77;;;;;;;3.61;100.00;101087.79;5126843;56;1141001;-73
2023/11/18 02:41:22;;;;;;;47.83;24.37;;;;;;;3.58;100.00;101091.83;5059837;57;1141103;-74
2023/11/18 02:46:28;;;;;;;43.20;22.43;;;;;;;3.56;100.00;101097.11;4973680;58;1142731;-73
2023/11/18 02:51:39;;;;;;;52.83;26.47;;;;;;;3.64;100.00;101100.75;4972940;58;1143094;-74
2023/11/18 02:56:41;;;;;;;48.60;22.70;;;;;;;3.66;100.00;101113.31;4992246;58;1143054;-74
2023/11/18 03:01:47;;;;;;;49.07;23.67;;;;;;;3.70;100.00;101122.72;4973353;58;1142893;-74
2023/11/18 03:06:52;;;;;;;47.10;24.07;;;;;;;3.71;100.00;101125.28;5032808;57;1141056;-72
2023/11/18 03:11:59;;;;;;;52.38;23.98;;;;;;;3.71;100.00;101128.35;4972468;58;1245908;-74
2023/11/18 03:17:06;;;;;;;38.35;20.40;;;;;;;3.76;100.00;101134.27;5050798;57;1163284;-74
2023/11/18 03:22:13;;;;;;;44.27;22.40;;;;;;;3.79;100.00;101141.55;5052048;57;1143452;-74
2023/11/18 03:27:18;;;;;;;40.60;20.77;;;;;;;3.74;100.00;101150.02;5055501;57;1143104;-74
2023/11/18 03:32:24;;;;;;;44.23;21.10;;;;;;;3.78;100.00;101159.46;5074158;57;1143076;-73
2023/11/18 03:37:30;;;;;;;53.90;22.97;;;;;;;3.81;100.00;101164.58;5054670;57;1143001;-74
2023/11/18 03:42:36;;;;;;;52.67;27.67;;;;;;;3.80;100.00;101170.72;5089588;56;1141066;-73
2023/11/18 03:47:42;;;;;;;39.50;20.13;;;;;;;3.77;100.00;101176.06;5062762;56;1140768;-74
2023/11/18 03:52:47;;;;;;;35.37;18.80;;;;;;;3.73;100.00;101184.94;5042983;56;1140759;-72
2023/11/18 03:57:53;;;;;;;39.63;20.27;;;;;;;3.72;100.00;101191.08;4959811;57;1142945;-74
2023/11/18 04:02:59;;;;;;;37.05;17.27;;;;;;;3.68;100.00;101189.94;5057632;56;1142891;-73
2023/11/18 04:08:06;;;;;;;47.77;20.70;;;;;;;3.61;100.00;101194.57;5126466;56;1142785;-74
2023/11/18 04:13:12;;;;;;;39.87;19.00;;;;;;;3.51;100.00;101207.13;4959660;57;1140763;-75
2023/11/18 04:18:18;;;;;;;32.50;18.60;;;;;;;3.42;100.00;101209.23;5037562;57;1140848;-74
2023/11/18 04:23:24;;;;;;;26.40;16.07;;;;;;;3.37;100.00;101211.16;5146803;56;1140939;-75
2023/11/18 04:28:30;;;;;;;27.60;15.33;;;;;;;3.35;100.00;101217.78;5126147;56;1142600;-75
2023/11/18 04:33:36;;;;;;;30.27;15.23;;;;;;;3.38;100.00;101235.94;5124698;56;1142916;-73
2023/11/18 04:38:41;;;;;;;29.23;17.60;;;;;;;3.41;100.00;101234.98;5146570;56;1141222;-74
2023/11/18 04:43:47;;;;;;;34.13;18.20;;;;;;;3.37;100.00;101234.23;5070160;56;1140739;-74
2023/11/18 04:48:54;;;;;;;33.47;18.30;;;;;;;3.39;100.00;101235.03;5043079;57;1140831;-75
2023/11/18 04:54:00;;;;;;;30.50;17.12;;;;;;;3.35;100.00;101243.07;5042306;57;1140986;-74
2023/11/18 04:59:06;;;;;;;30.37;17.50;;;;;;;3.26;100.00;101249.91;5062530;57;1140947;-73
2023/11/18 05:04:11;;;;;;;30.67;18.17;;;;;;;3.26;100.00;101253.38;5077381;56;1142990;-75
2023/11/18 05:09:18;;;;;;;23.97;14.70;;;;;;;3.31;100.00;101259.31;5086430;56;1142891;-75
2023/11/18 05:14:23;;;;;;;25.73;15.87;;;;;;;3.27;100.00;101272.53;5055219;57;1140712;-73
2023/11/18 05:19:29;;;;;;;22.80;14.10;;;;;;;3.24;100.00;101278.72;5126594;56;1140531;-75
2023/11/18 05:24:34;;;;;;;22.17;13.73;;;;;;;3.24;100.00;101278.72;5126384;56;1141095;-74
2023/11/18 05:29:47;;;;;;;30.23;16.95;;;;;;;3.22;100.00;101284.45;5145486;56;1140842;-73
2023/11/18 05:34:47;;;;;;;22.13;13.57;;;;;;;3.22;100.00;101297.52;5119279;56;1142936;-74
2023/11/18 05:39:59;;;;;;;21.85;14.47;;;;;;;3.22;100.00;101295.36;5111538;56;1263415;-76
2023/11/18 05:45:01;;;;;;;23.67;15.43;;;;;;;3.22;100.00;101292.30;5082459;56;1141006;-75
2023/11/18 05:50:07;;;;;;;21.90;13.78;;;;;;;3.20;100.00;101301.98;5153666;55;1140677;-75
2023/11/18 05:55:13;;;;;;;20.43;13.37;;;;;;;3.16;100.00;101307.76;5135195;55;1140945;-73
2023/11/18 06:00:21;;;;;;;20.33;12.83;;;;;;;3.20;100.00;101316.80;5053798;57;1141178;-75
2023/11/18 06:05:29;;;;;;;30.23;18.70;;;;;;;3.22;100.00;101317.58;5129516;56;1142884;-74
2023/11/18 06:10:34;;;;;;;29.60;17.83;;;;;;;3.27;100.00;101322.20;5067349;56;1140654;-75
2023/11/18 06:15:43;;;;;;;26.63;16.30;;;;;;;3.23;100.00;101332.36;5079677;56;1140878;-73
2023/11/18 06:20:48;;;;;;;21.40;14.78;;;;;;;3.15;100.00;101329.57;5157571;56;1140737;-73
2023/11/18 06:25:54;;;;;;;23.55;15.00;;;;;;;3.13;100.00;101335.30;5143502;56;1140597;-75
2023/11/18 06:31:00;;;;;;;24.15;14.60;;;;;;;3.12;100.00;101338.81;5122066;56;1140877;-73
2023/11/18 06:36:08;;;;;;;31.27;17.40;;;;;;;3.13;100.00;101344.90;5158557;56;1142612;-74
2023/11/18 06:41:16;;;;;;;40.97;20.57;;;;;;;3.06;100.00;101361.22;5128808;56;1140585;-73
2023/11/18 06:46:29;;;;;;;27.13;16.20;;;;;;;3.07;100.00;101358.16;5107422;55;1140562;-75
2023/11/18 06:51:37;;;;;;;25.88;15.23;;;;;;;3.03;100.00;101357.88;5092070;55;1140969;-73
2023/11/18 06:56:44;;;;;;;32.07;14.80;;;;;;;3.01;100.00;101357.93;5043254;56;1140666;-72
2023/11/18 07:01:50;;;;;;;29.27;16.63;;;;;;;3.04;100.00;101363.52;5042991;56;1140874;-75
2023/11/18 07:06:56;;;;;;;27.13;16.60;;;;;;;3.07;100.00;101365.55;5077473;56;1140724;-76
2023/11/18 07:12:03;;;;;;;35.10;19.70;;;;;;;3.05;100.00;101368.69;5067165;56;1140766;-75
2023/11/18 07:17:09;;;;;;;31.30;20.20;;;;;;;3.02;100.00;101374.46;5062699;56;1141300;-76
2023/11/18 07:22:14;;;;;;;40.57;22.87;;;;;;;3.05;100.00;101378.29;5041320;57;1140961;-76
2023/11/18 07:27:20;;;;;;;32.40;18.53;;;;;;;3.07;100.00;101386.91;5061365;57;1140821;-77
2023/11/18 07:32:25;;;;;;;29.20;17.07;;;;;;;3.12;100.00;101387.62;5059118;56;1142751;-73
2023/11/18 07:37:32;;;;;;;38.17;20.33;;;;;;;3.10;100.00;101390.73;5139285;56;1142714;-75
2023/11/18 07:42:38;;;;;;;33.00;18.90;;;;;;;3.11;100.00;101391.98;5153342;56;1140756;-74
2023/11/18 07:47:44;;;;;;;33.33;19.83;;;;;;;3.05;100.00;101390.05;5128122;56;1141066;-75
2023/11/18 07:52:51;;;;;;;27.60;17.63;;;;;;;3.02;100.00;101397.53;5104224;56;1140895;-75
2023/11/18 07:57:56;;;;;;;30.27;16.87;;;;;;;2.97;100.00;101382.89;5118258;56;1140869;-75
2023/11/18 08:03:02;;;;;;;30.23;18.85;;;;;;;3.08;100.00;101400.38;5099586;56;1143127;-73
2023/11/18 08:08:10;;;;;;;27.73;19.17;;;;;;;3.19;100.00;101407.44;5077655;56;1142698;-73
2023/11/18 08:13:16;;;;;;;33.50;19.03;;;;;;;3.23;100.00;101407.71;5053351;57;1140904;-75
2023/11/18 08:18:23;;;;;;;31.10;17.77;;;;;;;3.23;100.00;101418.17;5094468;56;1140892;-74
2023/11/18 08:23:30;;;;;;;27.77;18.17;;;;;;;3.25;100.00;101424.20;5123463;55;1141014;-78
2023/11/18 08:28:36;;;;;;;35.13;20.53;;;;;;;3.24;100.00;101421.64;5114233;56;1140864;-76
2023/11/18 08:33:41;;;;;;;44.77;24.87;;;;;;;3.31;100.00;101428.39;5125784;56;1143076;-76
2023/11/18 08:38:47;;;;;;;42.73;24.30;;;;;;;3.35;100.00;101436.55;5118752;56;1143031;-76
2023/11/18 08:43:53;;;;;;;30.63;19.47;;;;;;;3.41;100.00;101438.94;5091856;56;1140967;-74
2023/11/18 08:49:05;;;;;;;40.53;22.17;;;;;;;3.43;100.00;101444.97;5119554;56;1140950;-76
2023/11/18 08:54:22;;;;;;;34.53;18.05;;;;;;;3.42;100.00;101450.66;5112855;55;1140834;-75
2023/11/18 08:59:13;;;;;;;43.65;27.60;;;;;;;3.46;100.00;101460.56;5101415;56;1140781;-77
2023/11/18 09:04:21;;;;;;;29.37;18.03;;;;;;;3.46;100.00;101468.41;5102462;56;1141216;-75
2023/11/18 09:09:28;;;;;;;31.37;18.03;;;;;;;3.50;100.00;101475.27;5107556;55;1143059;-75
2023/11/18 09:14:33;;;;;;;26.57;16.70;;;;;;;3.51;100.00;101479.10;5042032;56;1142681;-75
2023/11/18 09:19:39;;;;;;;28.23;16.67;;;;;;;3.55;100.00;101478.55;5041660;56;1140813;-75
2023/11/18 09:24:45;;;;;;;27.23;16.17;;;;;;;3.49;100.00;101482.70;5062466;56;1141108;-74
2023/11/18 09:29:50;;;;;;;27.13;16.48;;;;;;;3.55;100.00;101495.55;5047131;56;1140923;-73
2023/11/18 09:34:56;;;;;;;33.73;18.47;;;;;;;3.60;100.00;101497.58;5040145;57;1140851;-73
2023/11/18 09:40:11;;;;;;;159.27;64.57;;;;;;;3.64;100.00;101497.89;5144178;56;1140857;-72
2023/11/18 09:45:19;;;;;;;36.53;20.45;;;;;;;3.57;100.00;101509.45;5116389;56;1143044;-73
2023/11/18 09:50:27;;;;;;;30.23;17.77;;;;;;;3.52;100.00;101513.96;5115992;56;1140661;-74
2023/11/18 09:55:46;;;;;;;30.60;17.00;;;;;;;3.47;100.00;101521.98;5151921;56;1140814;-73
2023/11/18 10:00:56;;;;;;;35.17;19.63;;;;;;;3.47;100.00;101525.90;5134702;56;1140998;-74
2023/11/18 10:06:04;;;;;;;29.12;17.32;;;;;;;3.51;100.00;101537.95;5136148;56;1142975;-75
2023/11/18 10:11:13;;;;;;;41.63;20.60;;;;;;;3.53;100.00;101533.53;5088254;56;1143138;-74
2023/11/18 10:16:18;;;;;;;30.13;18.70;;;;;;;3.52;100.00;101540.11;5058005;55;1140779;-73
2023/11/18 10:21:29;;;;;;;57.73;35.43;;;;;;;3.52;100.00;101544.03;5066484;55;1140939;-73
2023/11/18 10:26:35;;;;;;;35.57;21.13;;;;;;;3.53;100.00;101540.06;5156303;56;1141010;-74
2023/11/18 10:31:45;;;;;;;27.80;17.13;;;;;;;3.57;100.00;101539.97;5135659;56;1142887;-73
2023/11/18 10:37:04;;;;;;;31.63;18.00;;;;;;;3.58;100.00;101527.30;5137774;56;1143184;-74
2023/11/18 10:42:11;;;;;;;26.62;16.37;;;;;;;3.57;100.00;101533.44;5133468;55;1140965;-72
2023/11/18 10:47:17;;;;;;;27.80;17.07;;;;;;;3.53;100.00;101542.68;5101417;56;1141126;-74
2023/11/18 10:52:23;;;;;;;24.00;14.77;;;;;;;3.57;100.00;101548.67;5104963;56;1140900;-71
2023/11/18 10:57:29;;;;;;;25.97;17.00;;;;;;;3.65;100.00;101551.06;5120901;55;1143165;-73
2023/11/18 11:02:38;;;;;;;25.17;16.23;;;;;;;3.66;100.00;101546.23;5060308;56;1140745;-72
2023/11/18 11:07:44;;;;;;;25.60;15.50;;;;;;;3.69;100.00;101546.97;5125386;55;1140794;-73
2023/11/18 11:12:55;;;;;;;24.00;14.83;;;;;;;3.72;100.00;101545.56;5052871;57;1141199;-73
2023/11/18 11:18:14;;;;;;;19.13;12.73;;;;;;;3.73;100.00;101545.97;5053202;57;1140945;-73
2023/11/18 11:23:32;;;;;;;19.40;13.20;;;;;;;3.71;100.00;101550.84;5072826;56;1142898;-72
2023/11/18 11:28:47;;;;;;;25.23;14.80;;;;;;;3.74;100.00;101553.36;5105187;55;1141152;-72
2023/11/18 11:34:07;;;;;;;18.00;11.90;;;;;;;3.77;100.00;101548.04;5134500;56;1140571;-74
2023/11/18 11:39:22;;;;;;;21.30;12.73;;;;;;;3.80;100.00;101554.48;5136860;56;1140617;-74
2023/11/18 11:44:20;;;;;;;23.70;14.83;;;;;;;3.82;100.00;101556.12;5151873;56;1142618;-73
2023/11/18 11:49:30;;;;;;;22.93;14.63;;;;;;;3.83;100.00;101559.59;5137066;56;1140915;-72
2023/11/18 11:54:44;;;;;;;21.57;14.53;;;;;;;3.86;100.00;101566.89;5136676;56;1140786;-74
2023/11/18 11:59:55;;;;;;;21.20;14.77;;;;;;;3.92;100.00;101571.08;5140675;56;1141422;-73
2023/11/18 12:05:06;;;;;;;24.07;14.27;;;;;;;3.96;100.00;101577.08;5081487;56;1143039;-73
2023/11/18 12:10:15;;;;;;;22.37;14.80;;;;;;;3.99;100.00;101579.11;5136558;56;1143138;-73
2023/11/18 12:15:20;;;;;;;24.00;15.23;;;;;;;3.99;100.00;101582.18;5144199;56;1140644;-72
2023/11/18 12:20:53;;;;;;;21.90;15.27;;;;;;;3.95;100.00;101581.45;5127874;56;1141014;-73
2023/11/18 12:25:58;;;;;;;16.42;11.20;;;;;;;3.89;100.00;101582.95;5137628;56;1140654;-72
2023/11/18 12:31:16;;;;;;;23.57;16.15;;;;;;;3.93;100.00;101581.95;5135853;56;1143126;-72
2023/11/18 12:36:33;;;;;;;28.15;15.88;;;;;;;4.03;100.00;101579.88;5155492;55;1140882;-72
2023/11/18 12:41:40;;;;;;;29.25;16.75;;;;;;;4.08;100.00;101585.36;5099095;56;1140930;-72
2023/11/18 12:47:09;;;;;;;26.13;16.00;;;;;;;4.15;100.00;101589.92;5053775;56;1140748;-72
2023/11/18 12:52:07;;;;;;;21.15;12.00;;;;;;;4.12;100.00;101581.75;5051942;56;1140861;-74
2023/11/18 12:57:09;;;;;;;25.65;15.43;;;;;;;4.17;100.00;101595.52;5065799;56;1141104;-74
2023/11/18 13:02:19;;;;;;;26.73;15.93;;;;;;;4.19;100.00;101583.69;5110465;55;1140893;-75
2023/11/18 13:07:22;;;;;;;25.77;15.43;;;;;;;4.15;100.00;101571.59;5136973;56;1142791;-72
2023/11/18 13:12:28;;;;;;;26.05;14.95;;;;;;;4.17;100.00;101582.87;5157723;56;1142875;-73
2023/11/18 13:17:34;;;;;;;23.93;14.77;;;;;;;4.21;100.00;101590.58;5137368;56;1141007;-74
2023/11/18 13:22:40;;;;;;;56.43;27.23;;;;;;;4.27;100.00;101583.44;5136945;55;1140798;-74
2023/11/18 13:27:47;;;;;;;55.93;26.33;;;;;;;4.24;100.00;101579.16;5157571;56;1141195;-72
2023/11/18 13:32:52;;;;;;;33.53;18.27;;;;;;;4.19;100.00;101583.23;5136618;56;1140663;-75
2023/11/18 13:37:58;;;;;;;23.27;14.40;;;;;;;4.28;100.00;101570.75;5137543;56;1143315;-72
2023/11/18 13:43:08;;;;;;;59.43;27.13;;;;;;;4.62;100.00;101575.17;5157527;56;1150387;-72
2023/11/18 13:48:13;;;;;;;108.65;44.50;;;;;;;4.79;100.00;101576.72;5137981;56;1140972;-73
2023/11/18 13:53:19;;;;;;;27.50;16.57;;;;;;;4.76;100.00;101574.21;5137789;56;1143015;-75
2023/11/18 13:58:25;;;;;;;22.80;13.37;;;;;;;4.78;100.00;101578.09;5157591;56;1141066;-72
2023/11/18 14:03:31;;;;;;;21.33;12.83;;;;;;;5.02;100.00;101587.68;5074607;56;1143135;-74
2023/11/18 14:08:38;;;;;;;15.17;11.13;;;;;;;5.00;100.00;101592.58;5137840;56;1142859;-73
2023/11/18 14:13:44;;;;;;;21.17;13.57;;;;;;;4.89;100.00;101604.30;5158251;56;1143188;-74
2023/11/18 14:18:51;;;;;;;20.43;13.53;;;;;;;4.73;100.00;101597.08;5058974;56;1140793;-74
2023/11/18 14:23:59;;;;;;;23.63;13.97;;;;;;;4.66;100.00;101596.88;5053034;56;1141276;-74
2023/11/18 14:29:04;;;;;;;40.53;20.53;;;;;;;4.58;100.00;101586.20;5028895;57;1140757;-74
2023/11/18 14:34:10;;;;;;;50.38;26.25;;;;;;;4.51;100.00;101578.18;5070056;56;1141068;-73
2023/11/18 14:39:17;;;;;;;64.62;33.55;;;;;;;4.36;100.00;101580.48;5053115;56;1141075;-73
2023/11/18 14:44:22;;;;;;;68.10;32.83;;;;;;;4.18;100.00;101576.28;5052776;57;1140886;-74
2023/11/18 14:49:28;;;;;;;232.60;85.00;;;;;;;4.00;100.00;101576.04;5075819;56;1140862;-73
2023/11/18 14:54:35;;;;;;;298.70;111.40;;;;;;;3.86;100.00;101568.66;5054292;56;1144884;-73
2023/11/18 14:59:41;;;;;;;420.63;148.87;;;;;;;3.76;100.00;101570.73;5095139;56;1144938;-74
2023/11/18 15:04:48;;;;;;;259.30;93.77;;;;;;;3.64;100.00;101571.12;5146204;56;1144863;-73
2023/11/18 15:09:53;;;;;;;141.00;61.37;;;;;;;3.56;100.00;101582.72;5127003;56;1142914;-73
2023/11/18 15:14:59;;;;;;;157.72;69.12;;;;;;;3.54;100.00;101577.09;5127055;56;1142854;-72
2023/11/18 15:20:06;;;;;;;128.43;59.13;;;;;;;3.52;100.00;101575.42;5121489;56;1145925;-73
2023/11/18 15:25:13;;;;;;;108.75;51.88;;;;;;;3.50;100.00;101585.10;5119159;55;1142864;-74
2023/11/18 15:30:20;;;;;;;121.75;58.05;;;;;;;3.45;100.00;101585.23;5040942;57;1143279;-72
2023/11/18 15:35:26;;;;;;;101.03;41.63;;;;;;;3.42;100.00;101570.09;5146753;56;1143066;-73
2023/11/18 15:40:31;;;;;;;66.33;30.93;;;;;;;3.25;100.00;101563.21;5126989;56;1142883;-74
2023/11/18 15:45:37;;;;;;;62.77;29.70;;;;;;;2.98;100.00;101564.91;5126682;56;1140585;-77
2023/11/18 15:50:43;;;;;;;106.43;44.97;;;;;;;2.79;100.00;101561.96;5137879;56;1140920;-76
2023/11/18 15:55:49;;;;;;;101.37;42.67;;;;;;;2.64;100.00;101574.16;5121203;56;1142780;-76
2023/11/18 16:00:55;;;;;;;203.07;77.73;;;;;;;2.59;100.00;101593.03;4958608;58;1142922;-75
2023/11/18 16:06:01;;;;;;;229.10;86.90;;;;;;;2.44;100.00;101583.38;5020900;57;1142966;-75
2023/11/18 16:11:06;;;;;;;131.73;55.40;;;;;;;2.34;100.00;101568.87;5144905;56;1142839;-68
2023/11/18 16:16:12;;;;;;;86.63;36.40;;;;;;;2.17;100.00;101576.29;4958426;58;1142949;-69
2023/11/18 16:21:19;;;;;;;197.65;87.82;;;;;;;2.13;100.00;101582.52;5122206;56;1140695;-67
2023/11/18 16:26:25;;;;;;;156.70;68.67;;;;;;;2.10;100.00;101573.00;5055934;57;1142931;-68
2023/11/18 16:31:30;;;;;;;261.82;119.20;;;;;;;2.16;100.00;101573.27;5126347;56;1142701;-75
2023/11/18 16:36:39;;;;;;;217.00;90.70;;;;;;;2.17;100.00;101590.64;5125520;56;1145148;-73
2023/11/18 16:41:43;;;;;;;319.03;111.97;;;;;;;2.18;100.00;101584.98;5144650;56;1142880;-74
2023/11/18 16:46:50;;;;;;;315.73;130.30;;;;;;;2.14;100.00;101588.59;5120711;55;1145093;-74
2023/11/18 16:51:55;;;;;;;271.20;125.10;;;;;;;2.06;100.00;101583.55;5117176;55;1144938;-74
2023/11/18 16:57:01;;;;;;;275.47;129.23;;;;;;;2.04;100.00;101594.47;5111032;56;1144981;-75
2023/11/18 17:02:08;;;;;;;281.57;121.77;;;;;;;2.02;100.00;101601.02;5041072;57;1145127;-74
2023/11/18 17:07:14;;;;;;;171.60;73.52;;;;;;;2.06;100.00;101601.81;5135853;55;1145237;-73
2023/11/18 17:12:20;;;;;;;310.05;130.82;;;;;;;2.02;100.00;101581.45;5078530;55;1142947;-74
2023/11/18 17:17:25;;;;;;;262.30;115.87;;;;;;;1.80;100.00;101580.30;5131277;56;1144972;-75
2023/11/18 17:22:31;;;;;;;214.07;93.20;;;;;;;1.60;100.00;101588.59;5134640;56;1145031;-74
2023/11/18 17:27:37;;;;;;;146.60;62.80;;;;;;;1.43;100.00;101578.14;5132760;56;1143055;-74
2023/11/18 17:32:47;;;;;;;122.37;55.87;;;;;;;1.33;100.00;101577.05;5152988;56;1142750;-73
2023/11/18 17:37:52;;;;;;;148.70;66.03;;;;;;;1.27;100.00;101568.06;5133320;56;1143052;-73
2023/11/18 17:42:58;;;;;;;179.77;74.77;;;;;;;1.27;100.00;101569.81;5133342;56;1143055;-74
2023/11/18 17:48:06;;;;;;;166.17;74.77;;;;;;;1.31;100.00;101568.41;5160578;56;1142762;-74
2023/11/18 17:53:14;;;;;;;159.60;72.60;;;;;;;1.38;100.00;101562.15;5142138;56;1142973;-74
2023/11/18 17:58:20;;;;;;;179.37;74.90;;;;;;;1.35;100.00;101547.05;5096732;56;1143015;-74
2023/11/18 18:03:26;;;;;;;159.60;63.60;;;;;;;1.28;100.00;101557.19;5077425;56;1143480;-74
2023/11/18 18:08:34;;;;;;;164.07;69.53;;;;;;;1.16;100.00;101551.81;5056961;57;1143061;-73
2023/11/18 18:13:39;;;;;;;148.43;63.50;;;;;;;1.09;100.00;101558.04;5056961;57;1142692;-73
2023/11/18 18:18:44;;;;;;;185.50;79.83;;;;;;;1.03;100.00;101534.75;5113346;56;1143079;-74
2023/11/18 18:23:50;;;;;;;208.43;86.67;;;;;;;0.96;100.00;101527.50;5055698;56;1142930;-74
2023/11/18 18:28:56;;;;;;;190.60;81.60;;;;;;;0.94;100.00;101534.93;5054218;56;1142824;-74
2023/11/18 18:34:01;;;;;;;203.73;82.67;;;;;;;1.02;100.00;101543.45;5055081;56;1143054;-74
2023/11/18 18:39:08;;;;;;;172.47;76.03;;;;;;;1.10;100.00;101532.84;5055445;57;1143011;-74
2023/11/18 18:44:14;;;;;;;171.57;75.57;;;;;;;1.17;100.00;101531.39;5055247;57;1143068;-74
2023/11/18 18:49:20;;;;;;;147.85;65.37;;;;;;;1.17;100.00;101540.51;5055753;56;1142806;-73
2023/11/18 18:54:25;;;;;;;180.40;72.00;;;;;;;1.00;100.00;101553.91;5075446;56;1143076;-73
2023/11/18 18:59:31;;;;;;;135.37;54.93;;;;;;;0.90;100.00;101544.58;5055856;56;1142716;-73
2023/11/18 19:04:37;;;;;;;133.43;57.90;;;;;;;0.90;100.00;101535.91;5055795;56;1143143;-73
2023/11/18 19:09:42;;;;;;;143.70;61.33;;;;;;;0.82;100.00;101547.78;5074883;56;1142847;-73
2023/11/18 19:14:48;;;;;;;159.20;78.97;;;;;;;0.72;100.00;101544.10;5119541;55;1142914;-72
2023/11/18 19:19:53;;;;;;;128.27;63.63;;;;;;;0.64;100.00;101532.09;5133391;55;1142832;-74
2023/11/18 19:24:59;;;;;;;126.58;60.90;;;;;;;0.55;100.00;101525.78;5140075;56;1142968;-74
2023/11/18 19:30:05;;;;;;;136.83;61.33;;;;;;;0.55;100.00;101532.28;5160405;56;1142762;-74
2023/11/18 19:35:14;;;;;;;109.20;49.90;;;;;;;0.66;100.00;101511.23;5113708;56;1142890;-75
2023/11/18 19:40:21;;;;;;;76.60;38.50;;;;;;;0.73;100.00;101510.67;5065170;56;1143084;-75
2023/11/18 19:45:26;;;;;;;77.08;32.38;;;;;;;0.77;100.00;101509.70;5075163;56;1140844;-75
2023/11/18 19:50:32;;;;;;;86.40;40.10;;;;;;;0.77;100.00;101514.46;5055781;56;1140893;-74
2023/11/18 19:55:38;;;;;;;91.10;45.43;;;;;;;0.76;100.00;101498.90;5055227;56;1140809;-75
2023/11/18 20:00:44;;;;;;;92.37;42.67;;;;;;;0.73;100.00;101495.05;5101209;56;1141141;-74
2023/11/18 20:05:50;;;;;;;88.35;40.48;;;;;;;0.75;100.00;101473.30;5133927;56;1140723;-72
2023/11/18 20:10:56;;;;;;;114.20;52.37;;;;;;;0.70;100.00;101469.94;5125197;56;1140822;-72
2023/11/18 20:16:03;;;;;;;110.42;52.13;;;;;;;0.62;100.00;101475.29;5113469;56;1142956;-73
2023/11/18 20:21:09;;;;;;;122.53;52.30;;;;;;;0.59;100.00;101470.63;5064512;56;1249064;-74
2023/11/18 20:26:15;;;;;;;150.67;64.80;;;;;;;0.58;100.00;101465.86;5034880;57;1143197;-73
2023/11/18 20:31:20;;;;;;;133.07;63.28;;;;;;;0.58;100.00;101470.20;5074533;56;1143081;-73
2023/11/18 20:36:26;;;;;;;121.92;58.83;;;;;;;0.64;100.00;101467.45;5075698;56;1142991;-74
2023/11/18 20:41:32;;;;;;;129.47;60.30;;;;;;;0.69;100.00;101459.97;5034511;57;1142939;-74
2023/11/18 20:46:38;;;;;;;116.00;53.83;;;;;;;0.70;100.00;101453.87;5034929;57;1142972;-74
2023/11/18 20:51:43;;;;;;;115.70;49.57;;;;;;;0.67;100.00;101458.28;5055404;57;1142768;-73
2023/11/18 20:56:49;;;;;;;114.83;49.07;;;;;;;0.60;100.00;101441.95;5067305;55;1142949;-73
2023/11/18 21:01:54;;;;;;;100.10;43.33;;;;;;;0.44;100.00;101442.31;5192263;55;1142838;-73
2023/11/18 21:07:00;;;;;;;89.60;38.60;;;;;;;0.35;100.00;101437.70;5116869;55;1143222;-75
2023/11/18 21:12:07;;;;;;;85.13;36.10;;;;;;;0.34;100.00;101452.04;5139591;56;1140747;-73
2023/11/18 21:17:12;;;;;;;69.73;33.83;;;;;;;0.25;100.00;101434.89;5122899;56;1140671;-73
2023/11/18 21:22:18;;;;;;;86.53;43.13;;;;;;;0.16;100.00;101432.90;5125395;56;1141097;-74
2023/11/18 21:27:23;;;;;;;62.43;30.45;;;;;;;0.15;100.00;101424.71;5121954;56;1141022;-73
2023/11/18 21:32:29;;;;;;;79.10;36.53;;;;;;;0.13;100.00;101419.54;5053369;55;1141020;-73
2023/11/18 21:37:34;;;;;;;82.60;38.13;;;;;;;0.13;100.00;101421.28;5036844;57;1141107;-72
2023/11/18 21:42:42;;;;;;;76.20;34.90;;;;;;;0.12;100.00;101415.66;4973472;58;1140970;-73
2023/11/18 21:47:47;;;;;;;78.70;39.43;;;;;;;0.15;100.00;101411.70;5037636;57;1140551;-72
2023/11/18 21:52:56;;;;;;;68.30;33.70;;;;;;;0.12;100.00;101397.45;4955611;58;1140754;-73
2023/11/18 21:58:01;;;;;;;68.47;27.83;;;;;;;0.09;100.00;101388.41;5071574;56;1140869;-72
2023/11/18 22:03:07;;;;;;;62.67;31.30;;;;;;;0.03;100.00;101385.48;5145007;55;1140971;-72
2023/11/18 22:08:18;;;;;;;64.47;29.30;;;;;;;0.00;100.00;101379.89;5125523;56;1140763;-72
2023/11/18 22:13:20;;;;;;;89.67;39.20;;;;;;;-0.03;100.00;101374.78;5091628;56;1140586;-72
2023/11/18 22:18:26;;;;;;;94.63;40.13;;;;;;;-0.03;100.00;101367.42;5155395;56;1143045;-72
2023/11/18 22:23:32;;;;;;;92.47;37.00;;;;;;;-0.04;100.00;101356.61;5136757;56;1142808;-72
2023/11/18 22:28:39;;;;;;;78.13;33.77;;;;;;;-0.16;100.00;101334.77;5137182;55;1143159;-72
2023/11/18 22:33:44;;;;;;;81.17;33.60;;;;;;;-0.16;100.00;101334.77;5158308;55;1142766;-72
2023/11/18 22:38:51;;;;;;;76.97;35.00;;;;;;;-0.10;100.00;101342.42;5137264;56;1143094;-73